• pl
  • eng

Awiacja
Click on the bold red name to decode a message. 01:00 01.01.1970

METAR EPBY 252000Z 06005KT CAVOK 16/14 Q1022 =

METAR EPGD 252000Z 03008KT 9999 FEW040CB 16/12 Q1023 =

METAR EPKK 252000Z 03008KT CAVOK 17/12 Q1020 =

METAR EPKT 252000Z 07004KT CAVOK 15/11 Q1021 =

METAR EPLB 252000Z VRB01KT CAVOK 17/14 Q1021 =

METAR EPLL 252000Z 25003KT 230V290 9999 MIFG NSC 14/13 Q1022 =

METAR EPMO 252000Z 05003KT CAVOK 17/12 Q1022 =

METAR EPPO 252000Z 36004KT CAVOK 15/12 Q1022 =

METAR EPRA 252000Z NIL=

METAR EPRZ 252000Z 04006KT CAVOK 17/15 Q1020 =

METAR EPSC 252000Z VRB02KT 9999 FEW043CB 19/10 Q1022 =

METAR EPSY 252000Z VRB02KT 9999 MIFG NSC 14/13 Q1022=

METAR EPWA 252000Z 05006KT CAVOK 20/12 Q1021 NOSIG=

METAR EPWR 252000Z 05005KT CAVOK 18/10 Q1021 =

METAR EPZG 252000Z 02004KT CAVOK 16/09 Q1022 =
Awiacja.imgw.pl jest pogodowym serwisem informacyjnym
Instytutu Meteorologii i Gospodarki Wodnej Państwowego Instytutu Badawczego.
Copyright IMGW PIB 2009-2011© Wszelkie prawa zastrzeżone.